Lone Star Executive Airport
KCXO : now visible

Airfield :











YOU CAN JOIN US ON...

 
LOGIN :

Register | Disclaimer

   EN    FR    IT 

 









Legend :    VFR   Marginal VFR   IFR   Intensive IFR   Very Intensive IFR
Visi :
Ceiling :
>= 8 km
>= 3000ft
5 to 8 km
1000 to 3000 ft
1500m to 5 km
500 to 1000 ft
800 to 1500m
200 to 500 ft
< 800m
< 200 ft
Symbols :   Thunderstorms  Fog  Heavy snow  Heavy precipitations  Wind > 20 kt






- Airport Elevation : 245 ft


KCXO - Lone Star Executive

CURRENT METAR :
  • 081953Z 15010KT 10SM FEW029 21/14 A2998 RMK AO2 SLP149 T02110144

EXPIRED METARs :
  • 081853Z 18010G16KT 10SM BKN025 20/14 A3003 RMK AO2 SLP168 T02000139
  • 081834Z 17009G16KT 10SM SCT021 20/13 A3004 RMK AO2 T02000133
  • 081815Z 15008KT 10SM BKN019 19/13 A3006 RMK AO2 T01940133
  • 081753Z 15009KT 10SM FEW018 19/13 A3007 RMK AO2 SLP181 T01890133 10189 20072 58020

TAF KCXO
Valid from the 08 at 18:00 until the 09 at 18:00 UTC


081740Z 0818/0918 16008KT P6SM SCT006
FM081900 18008KT P6SM SCT040 SCT200
FM090700 19007KT P6SM SCT004 BKN025
FM091100 20006KT 2SM BR OVC007
FM091600 22011KT P6SM OVC015



MET'MAP, your aeronautical weather chart ! - Copyright ORBIFLY December 2007 - Disclaimer

ORBIFLY MET'MAP TEAM :

Programming & Development : Alexandra Zaïnal
Concept & original design : Baudouin d'Aumeries
Assistance for programming : Marc-Olivier Méhu
Technical & hardware support : Manuel Goepfert

Contact : metmap@orbifly.com




SOURCES & CREDITS :

   NOAA       Earth
Advisory